Elko, Nevada
Current Conditions -  °F | °C
As of 9:09 AM on Saturday 25 Oct 2014 (Local Time) from KEKO Reporting Station
Haze Haze  
Wind Chill: 65°   Ceiling: Unl
Heat Index: 65°   Visibility: 4mi
Dew Point: 31°   Wind: 22mph
Humidity: 28%   Direction: 180°S
Pressure: 29.99"   Gusts: 39mph
Location:  40.84°N, 115.76°W
Report Text: KEKO 251609Z AUTO 18019G34KT 4SM HZ FEW004 18/M01 A2999 RMK AO2 PK WND 18034/1604 T01831006
Loading
Personal Weather Stations






























Interactive Weather Map
Tropical Storm Tracking
New forecast layout! Learn more

10-Day Weather Forecast

Advertisements
Track Severe Weather on mobile